createdAt,value
2023-04-03T00:01:47.402Z,0.00
2023-04-03T00:04:17.864Z,0.12
2023-04-03T00:06:46.897Z,0.06
2023-04-03T00:09:15.938Z,-0.01
2023-04-03T00:11:44.980Z,-0.05
2023-04-03T00:14:14.024Z,-0.14
2023-04-03T00:16:43.166Z,-0.15
2023-04-03T00:19:13.491Z,-0.22
2023-04-03T00:21:44.056Z,-0.26
2023-04-03T00:24:13.163Z,-0.25
2023-04-03T00:26:42.170Z,-0.29
2023-04-03T00:29:11.286Z,-0.32
2023-04-03T00:31:41.078Z,-0.36
2023-04-03T00:34:11.033Z,-0.47
2023-04-03T00:36:40.057Z,-0.44
2023-04-03T00:39:11.147Z,-0.50
2023-04-03T00:41:40.255Z,-0.53
2023-04-03T00:44:40.782Z,-0.55
2023-04-03T00:47:12.769Z,-0.60
2023-04-03T00:49:44.048Z,-0.60
2023-04-03T00:52:16.579Z,-0.63
2023-04-03T00:54:50.851Z,-0.64
2023-04-03T00:57:20.903Z,-0.64
2023-04-03T00:59:53.854Z,-0.63
2023-04-03T01:02:23.195Z,-0.54
2023-04-03T01:04:53.387Z,-0.62
2023-04-03T01:07:26.026Z,-0.51
2023-04-03T01:09:59.786Z,-0.45
2023-04-03T01:12:31.435Z,-0.57
2023-04-03T01:15:04.095Z,-0.64
2023-04-03T01:17:36.228Z,-0.71
2023-04-03T01:20:43.896Z,-0.70
2023-04-03T01:23:32.692Z,-0.73
2023-04-03T01:26:04.280Z,-0.73
2023-04-03T01:28:37.190Z,-0.74
2023-04-03T01:31:17.338Z,-0.73
2023-04-03T01:33:49.722Z,-0.64
2023-04-03T01:36:25.127Z,-0.73
2023-04-03T01:38:54.918Z,-0.68
2023-04-03T01:41:24.750Z,-0.77
2023-04-03T01:43:56.868Z,-0.67
2023-04-03T01:46:25.969Z,-0.71
2023-04-03T01:48:56.490Z,-0.72
2023-04-03T01:51:25.553Z,-0.77
2023-04-03T01:53:54.807Z,-0.74
2023-04-03T01:56:24.298Z,-0.77
2023-04-03T01:58:53.520Z,-0.76
2023-04-03T02:01:22.817Z,-0.79
2023-04-03T02:03:51.988Z,-0.72
2023-04-03T02:06:22.472Z,-0.65
2023-04-03T02:08:51.543Z,-0.70
2023-04-03T02:11:21.119Z,-0.64
2023-04-03T02:13:50.224Z,-0.68
2023-04-03T02:16:19.337Z,-0.70
2023-04-03T02:18:48.399Z,-0.77
2023-04-03T02:21:17.475Z,-0.77
2023-04-03T02:23:47.871Z,-0.79
2023-04-03T02:26:18.423Z,-0.81
2023-04-03T02:28:48.278Z,-0.92
2023-04-03T02:31:19.925Z,-1.00
2023-04-03T02:33:49.837Z,-0.95
2023-04-03T02:36:19.272Z,-1.10
2023-04-03T02:38:55.621Z,-1.10
2023-04-03T02:41:26.468Z,-1.07
2023-04-03T02:43:56.275Z,-1.01
2023-04-03T02:46:25.494Z,-1.01
2023-04-03T02:48:54.687Z,-1.02
2023-04-03T02:51:24.127Z,-1.05
2023-04-03T02:53:56.260Z,-1.19
2023-04-03T02:56:29.790Z,-1.11
2023-04-03T02:58:58.917Z,-1.24
2023-04-03T03:01:32.249Z,-1.25
2023-04-03T03:04:01.640Z,-1.27
2023-04-03T03:06:30.732Z,-1.26
2023-04-03T03:09:01.208Z,-1.25
2023-04-03T03:11:30.448Z,-1.21
2023-04-03T03:13:59.694Z,-1.17
2023-04-03T03:16:28.929Z,-1.21
2023-04-03T03:18:59.480Z,-1.23
2023-04-03T03:21:29.282Z,-1.26
2023-04-03T03:23:59.871Z,-1.28
2023-04-03T03:26:29.679Z,-1.31
2023-04-03T03:28:58.906Z,-1.31
2023-04-03T03:31:29.229Z,-1.34
2023-04-03T03:33:58.376Z,-1.32
2023-04-03T03:36:27.542Z,-1.37
2023-04-03T03:38:56.567Z,-1.40
2023-04-03T03:41:27.956Z,-1.31
2023-04-03T03:43:57.083Z,-1.30
2023-04-03T03:46:26.791Z,-1.29
2023-04-03T03:48:56.527Z,-1.29
2023-04-03T03:51:26.025Z,-1.22
2023-04-03T03:53:55.463Z,-1.23
2023-04-03T03:56:27.443Z,-1.17
2023-04-03T03:58:57.133Z,-1.10
2023-04-03T04:01:26.719Z,-1.21
2023-04-03T04:03:56.410Z,-1.29
2023-04-03T04:06:29.458Z,-1.36
2023-04-03T04:09:01.998Z,-1.42
2023-04-03T04:11:34.308Z,-1.42
2023-04-03T04:14:03.487Z,-1.40
2023-04-03T04:16:33.464Z,-1.42
2023-04-03T04:19:09.034Z,-1.34
2023-04-03T04:21:40.213Z,-1.31
2023-04-03T04:24:09.939Z,-1.25
2023-04-03T04:26:41.364Z,-1.18
2023-04-03T04:29:13.456Z,-1.18
2023-04-03T04:31:42.565Z,-1.11
2023-04-03T04:34:13.793Z,-0.99
2023-04-03T04:36:43.146Z,-1.03
2023-04-03T04:39:12.864Z,-0.95
2023-04-03T04:41:44.234Z,-0.93
2023-04-03T04:44:13.396Z,-0.90
2023-04-03T04:46:43.144Z,-0.94
2023-04-03T04:49:12.335Z,-0.95
2023-04-03T04:51:51.553Z,-0.92
2023-04-03T04:54:23.924Z,-0.79
2023-04-03T04:56:54.968Z,-0.74
2023-04-03T04:59:24.580Z,-0.95
2023-04-03T05:01:56.126Z,-0.94
2023-04-03T05:04:25.737Z,-1.08
2023-04-03T05:07:00.333Z,-1.21
2023-04-03T05:09:31.834Z,-1.17
2023-04-03T05:12:03.823Z,-1.21
2023-04-03T05:14:39.052Z,-1.14
2023-04-03T05:17:10.761Z,-1.14
2023-04-03T05:19:43.324Z,-1.17
2023-04-03T05:22:13.273Z,-1.09
2023-04-03T05:24:42.596Z,-1.16
2023-04-03T05:27:13.636Z,-1.09
2023-04-03T05:29:46.956Z,-1.12
2023-04-03T05:32:21.625Z,-1.18
2023-04-03T05:34:55.805Z,-1.18
2023-04-03T05:37:24.822Z,-1.05
2023-04-03T05:39:55.715Z,-0.24
2023-04-03T05:42:26.890Z,0.26
2023-04-03T05:44:56.226Z,0.54
2023-04-03T05:47:25.775Z,0.57
2023-04-03T05:49:55.124Z,0.61
2023-04-03T05:52:29.972Z,0.81
2023-04-03T05:54:59.611Z,0.79
2023-04-03T05:57:32.891Z,0.89
2023-04-03T06:00:02.316Z,1.22
2023-04-03T06:02:32.739Z,1.56
2023-04-03T06:05:03.867Z,2.08
2023-04-03T06:07:33.040Z,2.49
2023-04-03T06:10:02.328Z,2.85
2023-04-03T06:12:33.088Z,2.56
2023-04-03T06:15:02.345Z,2.71
2023-04-03T06:17:32.147Z,2.73
2023-04-03T06:20:01.348Z,3.05
2023-04-03T06:22:31.669Z,2.72
2023-04-03T06:25:00.826Z,2.94
2023-04-03T06:27:29.904Z,3.11
2023-04-03T06:30:00.316Z,2.66
2023-04-03T06:32:29.416Z,2.86
2023-04-03T06:34:59.267Z,2.60
2023-04-03T06:37:29.820Z,2.71
2023-04-03T06:39:59.055Z,2.64
2023-04-03T06:42:28.156Z,2.21
2023-04-03T06:45:05.960Z,2.21
2023-04-03T06:47:35.054Z,2.36
2023-04-03T06:50:04.278Z,2.63
2023-04-03T06:52:33.377Z,2.83
2023-04-03T06:55:02.769Z,3.42
2023-04-03T06:57:32.598Z,3.43
2023-04-03T07:00:01.769Z,3.44
2023-04-03T07:02:32.221Z,3.80
2023-04-03T07:05:01.265Z,4.38
2023-04-03T07:07:30.710Z,4.67
2023-04-03T07:09:59.936Z,4.58
2023-04-03T07:12:28.963Z,5.32
2023-04-03T07:14:58.073Z,5.66
2023-04-03T07:17:27.818Z,6.00
2023-04-03T07:19:58.465Z,6.19
2023-04-03T07:22:27.591Z,5.88
2023-04-03T07:24:56.635Z,5.90
2023-04-03T07:27:26.130Z,5.34
2023-04-03T07:29:56.984Z,6.19
2023-04-03T07:32:26.129Z,6.14
2023-04-03T07:34:55.168Z,6.09
2023-04-03T07:37:26.020Z,6.30
2023-04-03T07:39:56.055Z,7.14
2023-04-03T07:42:25.098Z,7.30
2023-04-03T07:44:54.108Z,6.75
2023-04-03T07:47:23.214Z,7.06
2023-04-03T07:49:52.461Z,6.77
2023-04-03T07:52:21.506Z,6.99
2023-04-03T07:54:51.932Z,6.69
2023-04-03T07:57:21.361Z,6.90
2023-04-03T07:59:50.405Z,7.02
2023-04-03T08:02:19.541Z,7.42
2023-04-03T08:04:48.659Z,7.36
2023-04-03T08:07:18.051Z,8.05
2023-04-03T08:09:47.082Z,7.88
2023-04-03T08:12:17.588Z,7.36
2023-04-03T08:14:46.780Z,7.53
2023-04-03T08:17:15.887Z,7.16
2023-04-03T08:19:45.009Z,7.50
2023-04-03T08:22:14.067Z,7.72
2023-04-03T08:24:56.080Z,7.05
2023-04-03T08:27:29.618Z,6.24
2023-04-03T08:29:59.455Z,7.64
2023-04-03T08:32:29.033Z,6.58
2023-04-03T08:34:58.207Z,8.18
2023-04-03T08:37:27.429Z,7.94
2023-04-03T08:39:56.572Z,7.11
2023-04-03T08:42:41.731Z,7.29
2023-04-03T08:45:15.858Z,8.08
2023-04-03T08:47:56.440Z,6.70
2023-04-03T08:50:30.947Z,8.28
2023-04-03T08:53:01.284Z,8.08
2023-04-03T08:55:34.058Z,8.10
2023-04-03T08:58:07.237Z,7.70
2023-04-03T09:00:45.464Z,7.79
2023-04-03T09:03:16.815Z,8.16
2023-04-03T09:05:50.794Z,7.96
2023-04-03T09:08:29.346Z,8.40
2023-04-03T09:11:09.365Z,8.47
2023-04-03T09:13:48.512Z,7.88
2023-04-03T09:16:28.333Z,8.27
2023-04-03T09:19:08.897Z,9.01
2023-04-03T09:21:43.209Z,9.08
2023-04-03T09:24:14.770Z,7.77
2023-04-03T09:26:47.245Z,8.22
2023-04-03T09:29:21.816Z,8.06
2023-04-03T09:31:52.988Z,8.61
2023-04-03T09:34:27.404Z,8.90
2023-04-03T09:36:58.940Z,7.91
2023-04-03T09:39:29.982Z,7.59
2023-04-03T09:42:02.384Z,8.00
2023-04-03T09:44:34.903Z,8.96
2023-04-03T09:47:26.357Z,9.50
2023-04-03T09:50:20.119Z,9.08
2023-04-03T09:52:52.568Z,9.78
2023-04-03T09:55:28.060Z,9.01
2023-04-03T09:57:59.267Z,9.10
2023-04-03T10:00:35.034Z,9.47
2023-04-03T10:03:05.042Z,8.94
2023-04-03T10:05:37.014Z,9.91
2023-04-03T10:08:12.178Z,9.70
2023-04-03T10:10:42.626Z,8.66
2023-04-03T10:13:20.539Z,8.79
2023-04-03T10:15:57.541Z,8.65
2023-04-03T10:18:43.078Z,9.71
2023-04-03T10:21:27.515Z,9.86
2023-04-03T10:24:08.126Z,9.58
2023-04-03T10:26:46.338Z,10.13
2023-04-03T10:29:29.560Z,9.01
2023-04-03T10:32:13.855Z,9.11
2023-04-03T10:34:51.746Z,9.84
2023-04-03T10:37:33.185Z,9.42
2023-04-03T10:40:13.969Z,10.07
2023-04-03T10:42:48.662Z,10.06
2023-04-03T10:45:25.398Z,10.56
2023-04-03T10:48:05.607Z,9.55
2023-04-03T10:50:45.204Z,8.83
2023-04-03T10:53:23.999Z,8.63
2023-04-03T10:56:00.363Z,7.64
2023-04-03T10:58:35.925Z,9.46
2023-04-03T11:01:11.105Z,8.85
2023-04-03T11:03:44.386Z,8.63
2023-04-03T11:06:17.577Z,8.06
2023-04-03T11:08:52.295Z,8.17
2023-04-03T11:11:28.173Z,9.20
2023-04-03T11:14:03.769Z,10.09
2023-04-03T11:16:43.560Z,9.24
2023-04-03T11:19:25.238Z,9.12
2023-04-03T11:22:00.260Z,9.71
2023-04-03T11:24:33.114Z,9.69
2023-04-03T11:27:05.299Z,9.30
2023-04-03T11:29:38.878Z,9.07
2023-04-03T11:32:25.614Z,8.50
2023-04-03T11:35:00.106Z,8.17
2023-04-03T11:37:35.316Z,7.86
2023-04-03T11:40:10.117Z,7.96
2023-04-03T11:42:41.485Z,7.49
2023-04-03T11:45:38.950Z,7.55
2023-04-03T11:48:29.111Z,8.71
2023-04-03T11:51:00.455Z,8.70
2023-04-03T11:53:40.203Z,9.71
2023-04-03T11:56:34.272Z,9.23
2023-04-03T11:59:25.993Z,9.87
2023-04-03T12:01:56.604Z,10.45
2023-04-03T12:04:27.929Z,10.31
2023-04-03T12:07:19.893Z,10.21
2023-04-03T12:10:01.922Z,9.34
2023-04-03T12:12:37.781Z,10.58
2023-04-03T12:15:24.586Z,9.64
2023-04-03T12:17:53.996Z,10.17
2023-04-03T12:21:03.903Z,10.15
2023-04-03T12:23:37.203Z,11.24
2023-04-03T12:26:28.302Z,11.21
2023-04-03T12:29:05.066Z,10.10
2023-04-03T12:31:48.047Z,10.37
2023-04-03T12:34:40.333Z,9.22
2023-04-03T12:37:21.870Z,9.76
2023-04-03T12:40:09.359Z,10.72
2023-04-03T12:43:05.302Z,10.73
2023-04-03T12:45:45.438Z,8.79
2023-04-03T12:48:20.115Z,9.42
2023-04-03T12:50:51.361Z,10.30
2023-04-03T12:53:24.514Z,10.05
2023-04-03T12:55:58.361Z,10.00
2023-04-03T12:58:29.534Z,9.31
2023-04-03T13:01:03.555Z,9.30
2023-04-03T13:03:33.447Z,11.01
2023-04-03T13:06:04.701Z,11.29
2023-04-03T13:08:34.268Z,10.93
2023-04-03T13:11:11.349Z,9.57
2023-04-03T13:13:41.853Z,8.94
2023-04-03T13:16:15.300Z,8.78
2023-04-03T13:18:44.384Z,9.62
2023-04-03T13:21:20.855Z,10.60
2023-04-03T13:23:57.667Z,10.16
2023-04-03T13:26:37.396Z,10.71
2023-04-03T13:29:10.893Z,11.33
2023-04-03T13:31:42.386Z,11.00
2023-04-03T13:34:15.222Z,10.50
2023-04-03T13:36:48.010Z,9.99
2023-04-03T13:39:25.871Z,9.43
2023-04-03T13:41:58.454Z,10.08
2023-04-03T13:44:35.259Z,10.21
2023-04-03T13:47:18.747Z,10.54
2023-04-03T13:50:00.707Z,11.06
2023-04-03T13:52:33.518Z,10.10
2023-04-03T13:55:18.733Z,10.62
2023-04-03T13:57:56.863Z,10.01
2023-04-03T14:00:39.415Z,10.90
2023-04-03T14:03:16.140Z,10.84
2023-04-03T14:05:46.173Z,10.10
2023-04-03T14:08:15.557Z,10.39
2023-04-03T14:10:45.738Z,10.77
2023-04-03T14:13:17.587Z,11.50
2023-04-03T14:15:49.349Z,11.62
2023-04-03T14:18:21.627Z,10.78
2023-04-03T14:20:51.204Z,10.85
2023-04-03T14:23:21.009Z,9.94
2023-04-03T14:25:50.696Z,9.32
2023-04-03T14:28:23.438Z,10.71
2023-04-03T14:30:53.703Z,11.20
2023-04-03T14:33:27.078Z,10.81
2023-04-03T14:35:57.703Z,11.10
2023-04-03T14:38:30.090Z,8.80
2023-04-03T14:41:13.735Z,8.61
2023-04-03T14:43:48.155Z,7.85
2023-04-03T14:46:19.858Z,7.87
2023-04-03T14:48:49.388Z,7.97
2023-04-03T14:51:18.533Z,7.77
2023-04-03T14:53:50.142Z,8.29
2023-04-03T14:56:23.811Z,9.36
2023-04-03T14:58:58.891Z,9.84
2023-04-03T15:01:28.690Z,9.62
2023-04-03T15:03:57.968Z,8.19
2023-04-03T15:06:28.084Z,8.29
2023-04-03T15:08:57.181Z,8.15
2023-04-03T15:11:27.050Z,9.48
2023-04-03T15:13:57.525Z,9.36
2023-04-03T15:16:27.251Z,10.55
2023-04-03T15:18:56.395Z,10.96
2023-04-03T15:21:25.425Z,10.29
2023-04-03T15:23:54.472Z,8.99
2023-04-03T15:26:23.822Z,8.87
2023-04-03T15:28:52.965Z,8.23
2023-04-03T15:31:23.492Z,7.26
2023-04-03T15:33:52.702Z,7.00
2023-04-03T15:36:33.518Z,7.11
2023-04-03T15:39:03.496Z,6.84
2023-04-03T15:41:32.615Z,6.79
2023-04-03T15:44:01.652Z,7.97
2023-04-03T15:46:32.099Z,9.34
2023-04-03T15:49:01.216Z,8.66
2023-04-03T15:51:30.270Z,9.24
2023-04-03T15:53:59.501Z,9.39
2023-04-03T15:56:28.594Z,9.44
2023-04-03T15:58:57.648Z,9.54
2023-04-03T16:01:26.779Z,9.86
2023-04-03T16:03:57.426Z,9.25
2023-04-03T16:06:30.271Z,8.48
2023-04-03T16:08:59.509Z,8.82
2023-04-03T16:11:28.899Z,8.28
2023-04-03T16:13:58.662Z,8.78
2023-04-03T16:16:28.290Z,7.82
2023-04-03T16:18:59.453Z,7.71
2023-04-03T16:21:30.084Z,7.97
2023-04-03T16:23:59.979Z,8.04
2023-04-03T16:26:29.055Z,7.35
2023-04-03T16:28:58.222Z,7.16
2023-04-03T16:31:28.272Z,7.15
2023-04-03T16:33:58.882Z,6.60
2023-04-03T16:36:28.268Z,6.71
2023-04-03T16:38:57.343Z,6.62
2023-04-03T16:41:27.052Z,6.76
2023-04-03T16:43:56.223Z,6.26
2023-04-03T16:46:25.295Z,6.38
2023-04-03T16:48:54.740Z,6.07
2023-04-03T16:51:26.719Z,6.29
2023-04-03T16:53:57.930Z,6.18
2023-04-03T16:56:29.516Z,6.14
2023-04-03T16:59:06.520Z,6.10
2023-04-03T17:01:38.511Z,5.89
2023-04-03T17:04:16.320Z,5.92
2023-04-03T17:06:58.010Z,5.97
2023-04-03T17:09:31.366Z,5.88
2023-04-03T17:12:09.148Z,5.92
2023-04-03T17:14:46.118Z,5.73
2023-04-03T17:17:20.736Z,5.42
2023-04-03T17:19:50.275Z,5.48
2023-04-03T17:22:23.109Z,5.37
2023-04-03T17:24:56.816Z,5.49
2023-04-03T17:27:30.485Z,5.30
2023-04-03T17:30:02.152Z,5.31
2023-04-03T17:32:31.918Z,5.19
2023-04-03T17:35:11.164Z,4.97
2023-04-03T17:37:47.665Z,5.06
2023-04-03T17:40:18.802Z,4.94
2023-04-03T17:42:50.758Z,5.08
2023-04-03T17:45:20.853Z,4.84
2023-04-03T17:47:52.789Z,4.81
2023-04-03T17:50:22.148Z,4.85
2023-04-03T17:52:52.847Z,4.83
2023-04-03T17:55:24.180Z,4.78
2023-04-03T17:57:59.879Z,4.72
2023-04-03T18:00:29.529Z,4.72
2023-04-03T18:03:10.320Z,4.54
2023-04-03T18:05:43.725Z,4.57
2023-04-03T18:08:20.443Z,4.44
2023-04-03T18:10:54.943Z,4.39
2023-04-03T18:13:28.384Z,4.36
2023-04-03T18:16:00.819Z,4.35
2023-04-03T18:18:30.568Z,4.30
2023-04-03T18:21:01.821Z,4.20
2023-04-03T18:23:37.148Z,4.11
2023-04-03T18:26:16.596Z,4.14
2023-04-03T18:28:58.451Z,4.04
2023-04-03T18:31:31.188Z,3.94
2023-04-03T18:34:06.880Z,3.96
2023-04-03T18:36:44.182Z,3.87
2023-04-03T18:39:15.131Z,3.86
2023-04-03T18:41:45.922Z,3.78
2023-04-03T18:44:26.915Z,3.65
2023-04-03T18:47:01.346Z,3.52
2023-04-03T18:49:35.456Z,3.57
2023-04-03T18:52:05.602Z,3.48
2023-04-03T18:54:39.510Z,3.49
2023-04-03T18:57:08.839Z,3.40
2023-04-03T18:59:38.628Z,3.35
2023-04-03T19:02:14.875Z,3.38
2023-04-03T19:04:44.718Z,3.31
2023-04-03T19:07:19.429Z,3.21
2023-04-03T19:09:50.174Z,3.16
2023-04-03T19:12:21.864Z,3.19
2023-04-03T19:14:51.847Z,3.07
2023-04-03T19:17:25.816Z,3.04
2023-04-03T19:20:01.902Z,2.90
2023-04-03T19:22:32.081Z,2.95
2023-04-03T19:25:06.633Z,2.94
2023-04-03T19:27:38.932Z,2.82
2023-04-03T19:30:13.564Z,2.81
2023-04-03T19:32:42.748Z,2.81
2023-04-03T19:35:15.158Z,2.75
2023-04-03T19:37:53.776Z,2.69
2023-04-03T19:40:29.148Z,2.63
2023-04-03T19:43:00.644Z,2.51
2023-04-03T19:45:30.445Z,2.38
2023-04-03T19:48:07.464Z,2.32
2023-04-03T19:50:40.437Z,2.23
2023-04-03T19:53:16.416Z,2.14
2023-04-03T19:55:51.327Z,2.16
2023-04-03T19:58:23.152Z,2.04
2023-04-03T20:00:55.287Z,1.97
2023-04-03T20:03:34.091Z,1.95
2023-04-03T20:06:04.492Z,1.88
2023-04-03T20:08:34.492Z,1.79
2023-04-03T20:11:05.846Z,1.71
2023-04-03T20:13:34.895Z,1.61
2023-04-03T20:16:05.107Z,1.56
2023-04-03T20:18:34.773Z,1.59
2023-04-03T20:21:05.578Z,1.59
2023-04-03T20:23:36.396Z,1.61
2023-04-03T20:26:11.744Z,1.56
2023-04-03T20:28:45.026Z,1.44
2023-04-03T20:31:14.149Z,1.57
2023-04-03T20:33:43.501Z,1.56
2023-04-03T20:36:12.703Z,1.71
2023-04-03T20:38:41.772Z,1.59
2023-04-03T20:41:12.712Z,1.67
2023-04-03T20:43:42.825Z,1.63
2023-04-03T20:46:13.985Z,1.56
2023-04-03T20:48:43.092Z,1.57
2023-04-03T20:51:13.346Z,1.54
2023-04-03T20:53:42.950Z,1.33
2023-04-03T20:56:14.178Z,1.27
2023-04-03T20:58:46.009Z,1.22
2023-04-03T21:01:18.026Z,1.22
2023-04-03T21:03:48.638Z,1.23
2023-04-03T21:06:56.352Z,1.11
2023-04-03T21:10:03.459Z,1.17
2023-04-03T21:13:10.175Z,1.05
2023-04-03T21:15:48.840Z,0.96
2023-04-03T21:18:45.321Z,0.94
2023-04-03T21:21:23.070Z,1.01
2023-04-03T21:23:53.605Z,1.01
2023-04-03T21:26:23.559Z,0.90
2023-04-03T21:28:53.467Z,0.74
2023-04-03T21:31:23.571Z,0.66
2023-04-03T21:33:54.693Z,0.73
2023-04-03T21:36:23.762Z,0.68
2023-04-03T21:38:57.942Z,0.59
2023-04-03T21:41:27.473Z,0.57
2023-04-03T21:43:57.037Z,0.59
2023-04-03T21:46:26.187Z,0.47
2023-04-03T21:48:56.703Z,0.64
2023-04-03T21:51:27.739Z,0.60
2023-04-03T21:53:57.372Z,0.47
2023-04-03T21:56:26.521Z,0.59
2023-04-03T21:58:55.841Z,0.39
2023-04-03T22:01:25.028Z,0.46
2023-04-03T22:03:58.124Z,0.37
2023-04-03T22:06:27.520Z,0.24
2023-04-03T22:08:57.952Z,0.17
2023-04-03T22:11:29.271Z,0.11
2023-04-03T22:13:58.326Z,0.02
2023-04-03T22:16:27.562Z,0.10
2023-04-03T22:18:59.457Z,0.05
2023-04-03T22:21:28.466Z,0.05
2023-04-03T22:23:58.294Z,0.07
2023-04-03T22:26:27.386Z,0.06
2023-04-03T22:28:56.388Z,0.02
2023-04-03T22:31:25.548Z,-0.15
2023-04-03T22:33:56.085Z,-0.32
2023-04-03T22:36:27.030Z,-0.41
2023-04-03T22:38:57.267Z,-0.49
2023-04-03T22:41:26.320Z,-0.64
2023-04-03T22:43:55.422Z,-0.73
2023-04-03T22:46:25.829Z,-0.66
2023-04-03T22:48:54.949Z,-0.61
2023-04-03T22:51:25.349Z,-0.55
2023-04-03T22:53:54.444Z,-0.54
2023-04-03T22:56:25.988Z,-0.43
2023-04-03T22:58:55.506Z,-0.50
2023-04-03T23:01:25.187Z,-0.29
2023-04-03T23:03:54.665Z,-0.27
2023-04-03T23:06:25.050Z,-0.36
2023-04-03T23:08:54.115Z,-0.37
2023-04-03T23:11:23.366Z,-0.36
2023-04-03T23:13:52.441Z,-0.34
2023-04-03T23:16:21.530Z,-0.37
2023-04-03T23:18:51.168Z,-0.36
2023-04-03T23:21:20.182Z,-0.38
2023-04-03T23:23:50.570Z,-0.43
2023-04-03T23:26:19.729Z,-0.45
2023-04-03T23:28:48.805Z,-0.42
2023-04-03T23:31:18.284Z,-0.42
2023-04-03T23:33:47.330Z,-0.44
2023-04-03T23:36:16.876Z,-0.41
2023-04-03T23:38:46.021Z,-0.38
2023-04-03T23:41:16.627Z,-0.48
2023-04-03T23:43:47.413Z,-0.60
2023-04-03T23:46:16.532Z,-0.80
2023-04-03T23:48:45.660Z,-0.92
2023-04-03T23:51:14.680Z,-1.08
2023-04-03T23:53:43.758Z,-1.08
2023-04-03T23:56:13.233Z,-1.13
2023-04-03T23:58:43.765Z,-1.09
